Time;durP1;ratioP1;P1;durP2;ratioP2;P2;SDS_P1;SDS_P2;PMS_P1;PMS_P2;Temp;Humidity;BMP_temperature;BMP_pressure;BME280_temperature;BME280_humidity;BME280_pressure;Samples;Min_cycle;Max_cycle;Signal;HPM_P1;HPM_P2
2024/01/22 00:01:41;;;;;;;3.25;2.60;;;7.30;81.30;;;;;;5012913;28;20087;-82
2024/01/22 00:04:07;;;;;;;4.13;2.47;;;7.40;81.40;;;;;;5011062;28;20040;-88
2024/01/22 00:06:37;;;;;;;2.67;2.13;;;7.40;81.40;;;;;;5010095;28;20030;-89
2024/01/22 00:09:03;;;;;;;2.80;2.30;;;7.40;81.40;;;;;;4994729;28;20018;-83
2024/01/22 00:11:29;;;;;;;3.75;2.40;;;7.40;81.40;;;;;;4994798;28;20027;-81
2024/01/22 00:13:56;;;;;;;2.42;2.00;;;7.50;81.40;;;;;;5006492;28;20084;-82
2024/01/22 00:16:23;;;;;;;2.67;2.08;;;7.50;81.40;;;;;;4996286;28;20615;-82
2024/01/22 00:18:49;;;;;;;3.33;2.33;;;7.50;81.50;;;;;;5007548;28;20049;-80
2024/01/22 00:21:16;;;;;;;3.75;2.30;;;7.60;81.50;;;;;;4992753;28;20517;-82
2024/01/22 00:23:41;;;;;;;3.05;2.20;;;7.60;81.50;;;;;;4994602;28;20112;-82
2024/01/22 00:26:12;;;;;;;3.67;2.45;;;7.60;81.50;;;;;;5008943;28;20431;-90
2024/01/22 00:28:38;;;;;;;2.97;2.25;;;7.60;81.50;;;;;;5009279;28;20046;-83
2024/01/22 00:31:04;;;;;;;2.95;2.05;;;7.60;81.50;;;;;;5026523;28;20029;-77
2024/01/22 00:33:30;;;;;;;3.53;2.25;;;7.70;81.50;;;;;;5002880;28;20022;-90
2024/01/22 00:35:56;;;;;;;2.67;2.20;;;7.70;81.50;;;;;;4981617;28;20057;-89
2024/01/22 00:38:29;;;;;;;3.17;2.30;;;7.80;81.60;;;;;;4999390;28;20096;-83
2024/01/22 00:40:55;;;;;;;2.88;2.35;;;7.80;81.50;;;;;;5004610;28;20034;-82
2024/01/22 00:43:20;;;;;;;2.22;1.98;;;7.80;81.50;;;;;;4983847;28;20079;-83
2024/01/22 00:45:46;;;;;;;2.33;2.03;;;7.80;81.50;;;;;;5000359;28;20030;-83
2024/01/22 00:48:12;;;;;;;2.65;2.17;;;7.80;81.50;;;;;;5011390;28;20025;-83
2024/01/22 00:50:38;;;;;;;2.70;2.40;;;7.90;81.50;;;;;;5011456;28;20037;-83
2024/01/22 00:53:03;;;;;;;2.30;2.10;;;7.90;81.50;;;;;;4994070;28;20041;-83
2024/01/22 00:55:29;;;;;;;2.63;2.00;;;7.90;81.60;;;;;;5010826;28;20026;-90
2024/01/22 00:57:55;;;;;;;2.47;2.17;;;7.90;81.50;;;;;;5009777;28;20383;-82
2024/01/22 01:00:21;;;;;;;3.22;2.45;;;7.90;81.50;;;;;;5016849;28;20122;-83
2024/01/22 01:02:49;;;;;;;2.75;1.95;;;8.00;81.50;;;;;;5020985;28;20026;-82
2024/01/22 01:05:16;;;;;;;2.45;2.08;;;8.00;81.60;;;;;;5004592;28;20029;-77
2024/01/22 01:07:41;;;;;;;2.90;2.20;;;8.00;81.60;;;;;;5002044;28;20036;-82
2024/01/22 01:10:07;;;;;;;2.42;2.13;;;8.10;82.20;;;;;;5008948;28;20105;-77
2024/01/22 01:12:33;;;;;;;2.90;2.40;;;8.10;81.60;;;;;;4986139;28;20018;-89
2024/01/22 01:14:59;;;;;;;3.47;2.33;;;8.10;81.60;;;;;;5009542;28;20040;-90
2024/01/22 01:17:24;;;;;;;2.63;2.33;;;8.20;81.60;;;;;;5005868;28;20057;-77
2024/01/22 01:19:50;;;;;;;3.10;2.20;;;8.20;81.60;;;;;;4990860;28;20116;-89
2024/01/22 01:22:16;;;;;;;2.95;2.28;;;8.20;81.60;;;;;;5008857;28;20105;-76
2024/01/22 01:24:41;;;;;;;3.15;2.13;;;8.20;81.60;;;;;;5003271;28;20126;-83
2024/01/22 01:27:07;;;;;;;2.67;2.10;;;8.20;81.60;;;;;;5008848;28;20104;-83
2024/01/22 01:29:33;;;;;;;2.55;2.22;;;8.20;81.50;;;;;;4991302;28;20040;-88
2024/01/22 01:31:59;;;;;;;2.63;2.20;;;8.30;81.50;;;;;;5011593;28;20490;-89
2024/01/22 01:34:25;;;;;;;3.08;2.10;;;8.30;81.50;;;;;;5002944;28;20119;-77
2024/01/22 01:36:51;;;;;;;3.78;2.15;;;8.30;81.40;;;;;;5009525;28;20029;-82
2024/01/22 01:39:16;;;;;;;2.63;2.15;;;8.30;81.40;;;;;;4989626;28;20032;-83
2024/01/22 01:41:42;;;;;;;3.70;2.40;;;8.40;81.40;;;;;;5006621;28;20022;-90
2024/01/22 01:44:08;;;;;;;2.70;2.20;;;8.40;81.40;;;;;;4990939;28;20104;-83
2024/01/22 01:46:34;;;;;;;3.10;2.25;;;8.40;81.40;;;;;;5008838;28;20018;-77
2024/01/22 01:49:00;;;;;;;4.90;2.40;;;8.40;81.40;;;;;;4987338;28;20024;-82
2024/01/22 01:51:25;;;;;;;2.70;2.30;;;8.50;81.50;;;;;;4994692;28;20036;-83
2024/01/22 01:53:52;;;;;;;2.20;2.00;;;8.50;81.50;;;;;;4995442;28;20041;-83
2024/01/22 01:56:19;;;;;;;2.22;1.90;;;8.50;81.50;;;;;;4988052;28;20034;-77
2024/01/22 01:58:45;;;;;;;2.38;2.00;;;8.50;81.50;;;;;;4985076;28;20371;-77
2024/01/22 02:01:11;;;;;;;2.50;2.00;;;8.50;81.50;;;;;;5005088;28;20103;-83
2024/01/22 02:03:37;;;;;;;2.38;2.13;;;8.60;81.50;;;;;;5006683;28;20469;-83
2024/01/22 02:06:03;;;;;;;2.35;2.05;;;8.60;81.50;;;;;;5004198;28;20033;-83
2024/01/22 02:08:29;;;;;;;3.22;2.17;;;8.60;81.50;;;;;;5024950;28;20014;-85
2024/01/22 02:10:55;;;;;;;2.10;1.90;;;8.60;81.60;;;;;;5006528;28;20038;-83
2024/01/22 02:13:21;;;;;;;2.35;2.10;;;8.70;81.60;;;;;;4990207;28;20022;-77
2024/01/22 02:15:46;;;;;;;2.60;2.08;;;8.70;81.60;;;;;;5006606;28;20034;-76
2024/01/22 02:18:12;;;;;;;2.35;1.92;;;8.70;81.60;;;;;;5002210;28;20033;-76
2024/01/22 02:20:38;;;;;;;2.55;2.03;;;8.80;81.70;;;;;;4988900;28;20026;-83
2024/01/22 02:23:08;;;;;;;2.10;1.90;;;8.80;81.70;;;;;;4989008;28;20080;-83
2024/01/22 02:25:34;;;;;;;2.95;2.05;;;8.80;81.60;;;;;;5002028;28;20417;-82
2024/01/22 02:28:00;;;;;;;2.20;2.00;;;8.80;82.30;;;;;;4990626;28;20057;-83
2024/01/22 02:30:25;;;;;;;2.88;1.75;;;8.80;81.70;;;;;;5018882;28;20125;-77
2024/01/22 02:32:51;;;;;;;2.28;1.90;;;8.80;81.70;;;;;;4984777;28;20113;-83
2024/01/22 02:35:17;;;;;;;2.13;1.88;;;8.90;81.70;;;;;;5002842;28;20413;-83
2024/01/22 02:37:44;;;;;;;2.60;1.80;;;8.90;81.80;;;;;;5006517;28;20033;-83
2024/01/22 02:40:10;;;;;;;3.13;1.90;;;8.90;81.70;;;;;;4986034;28;20022;-82
2024/01/22 02:42:35;;;;;;;2.28;1.90;;;8.90;81.70;;;;;;5017088;28;20084;-82
2024/01/22 02:45:02;;;;;;;2.30;1.80;;;9.00;81.70;;;;;;4987617;28;20022;-77
2024/01/22 02:47:28;;;;;;;1.85;1.73;;;9.00;81.60;;;;;;5009272;28;20022;-83
2024/01/22 02:49:54;;;;;;;1.92;1.73;;;9.00;81.60;;;;;;5008785;28;20033;-77
2024/01/22 02:52:19;;;;;;;2.05;1.85;;;9.00;81.70;;;;;;5007045;28;20504;-83
2024/01/22 02:54:45;;;;;;;2.10;1.90;;;9.00;81.60;;;;;;5009601;28;20037;-83
2024/01/22 02:57:11;;;;;;;1.70;1.58;;;9.10;81.70;;;;;;5006335;28;20037;-77
2024/01/22 02:59:39;;;;;;;3.05;1.75;;;9.10;81.70;;;;;;5008610;28;20026;-82
2024/01/22 03:02:05;;;;;;;2.58;1.90;;;9.20;81.70;;;;;;4993669;28;20425;-83
2024/01/22 03:04:31;;;;;;;2.10;1.70;;;9.10;81.60;;;;;;4993482;28;20228;-82
2024/01/22 03:06:57;;;;;;;1.85;1.70;;;9.20;81.60;;;;;;4993510;28;20018;-83
2024/01/22 03:09:22;;;;;;;1.92;1.70;;;9.20;81.50;;;;;;5008202;28;20026;-83
2024/01/22 03:11:51;;;;;;;2.83;1.83;;;9.20;81.50;;;;;;4994392;28;20033;-83
2024/01/22 03:14:17;;;;;;;2.55;1.85;;;9.20;81.50;;;;;;5006011;28;20058;-83
2024/01/22 03:16:42;;;;;;;2.65;1.83;;;9.20;81.40;;;;;;4993579;28;20503;-83
2024/01/22 03:19:08;;;;;;;1.92;1.77;;;9.30;81.50;;;;;;5007580;28;20382;-83
2024/01/22 03:21:34;;;;;;;1.92;1.70;;;9.30;81.50;;;;;;4989113;28;20022;-82
2024/01/22 03:24:00;;;;;;;1.77;1.60;;;9.30;81.50;;;;;;5004423;28;20030;-89
2024/01/22 03:26:26;;;;;;;1.73;1.63;;;9.30;81.50;;;;;;5011897;28;20034;-83
2024/01/22 03:28:52;;;;;;;1.77;1.58;;;9.30;81.50;;;;;;5027403;28;20137;-85
2024/01/22 03:31:27;;;;;;;2.42;1.75;;;9.40;81.50;;;;;;5010792;28;20033;-89
2024/01/22 03:33:55;;;;;;;1.67;1.58;;;9.40;81.50;;;;;;4991011;28;20029;-83
2024/01/22 03:36:22;;;;;;;1.60;1.50;;;9.40;81.40;;;;;;4980514;28;20094;-89
2024/01/22 03:38:48;;;;;;;1.70;1.60;;;9.50;81.50;;;;;;5002089;28;20033;-77
2024/01/22 03:41:14;;;;;;;2.20;1.85;;;9.50;81.50;;;;;;4987259;28;20481;-83
2024/01/22 03:43:44;;;;;;;2.00;1.80;;;9.50;81.50;;;;;;5012597;28;20471;-82
2024/01/22 03:46:11;;;;;;;2.40;1.63;;;9.50;81.50;;;;;;5009638;28;20083;-83
2024/01/22 03:48:37;;;;;;;1.60;1.50;;;9.50;81.50;;;;;;5011242;28;20022;-84
2024/01/22 03:51:02;;;;;;;1.80;1.65;;;9.50;81.40;;;;;;4989599;28;20045;-77
2024/01/22 03:53:28;;;;;;;1.60;1.50;;;9.50;81.40;;;;;;5010120;28;20033;-90
2024/01/22 03:55:54;;;;;;;1.70;1.60;;;9.60;81.40;;;;;;5007440;28;20038;-83
2024/01/22 03:58:20;;;;;;;1.80;1.67;;;9.60;81.40;;;;;;4990972;28;20113;-83
2024/01/22 04:00:46;;;;;;;1.98;1.60;;;9.60;81.30;;;;;;5004751;28;20034;-83
2024/01/22 04:03:12;;;;;;;1.58;1.48;;;9.60;81.30;;;;;;4993742;28;20036;-83
2024/01/22 04:05:38;;;;;;;1.77;1.67;;;9.70;81.40;;;;;;4996781;28;20121;-88
2024/01/22 04:08:04;;;;;;;1.50;1.40;;;9.70;81.40;;;;;;4994284;28;20045;-83
2024/01/22 04:10:30;;;;;;;1.95;1.65;;;9.70;81.30;;;;;;5003751;28;20041;-89
2024/01/22 04:12:56;;;;;;;1.60;1.48;;;9.70;81.30;;;;;;4988380;28;20057;-89
2024/01/22 04:15:22;;;;;;;2.13;1.60;;;9.70;81.20;;;;;;5006347;28;20034;-83
2024/01/22 04:17:48;;;;;;;1.60;1.40;;;9.80;81.30;;;;;;5003525;28;20034;-83
2024/01/22 04:20:14;;;;;;;1.70;1.60;;;9.80;81.20;;;;;;5004719;28;20038;-84
2024/01/22 04:22:40;;;;;;;1.50;1.40;;;9.80;81.20;;;;;;5012497;28;20091;-84
2024/01/22 04:25:07;;;;;;;1.83;1.50;;;9.80;81.20;;;;;;4992967;28;20030;-82
2024/01/22 04:27:32;;;;;;;2.13;1.50;;;9.80;81.10;;;;;;4994175;28;20065;-83
2024/01/22 04:29:58;;;;;;;1.77;1.40;;;9.80;81.20;;;;;;4988667;28;20524;-77
2024/01/22 04:32:24;;;;;;;1.50;1.40;;;9.80;81.10;;;;;;4990491;28;20058;-88
2024/01/22 04:34:50;;;;;;;1.67;1.52;;;9.80;81.10;;;;;;5006479;28;20092;-83
2024/01/22 04:37:16;;;;;;;1.75;1.60;;;9.90;81.20;;;;;;5006573;28;20072;-83
2024/01/22 04:39:42;;;;;;;1.90;1.70;;;9.90;81.10;;;;;;5005504;28;20025;-84
2024/01/22 04:42:08;;;;;;;1.50;1.40;;;9.90;81.00;;;;;;5010613;28;20018;-89
2024/01/22 04:44:34;;;;;;;1.40;1.30;;;10.00;81.10;;;;;;5000750;28;20023;-77
2024/01/22 04:47:00;;;;;;;1.85;1.42;;;9.90;81.00;;;;;;5009005;28;20022;-83
2024/01/22 04:49:26;;;;;;;1.50;1.40;;;10.00;81.00;;;;;;5008268;28;20027;-88
2024/01/22 04:51:52;;;;;;;1.50;1.40;;;10.00;81.00;;;;;;4992016;28;20022;-77
2024/01/22 04:54:18;;;;;;;1.55;1.45;;;10.00;80.90;;;;;;4989891;28;20041;-77
2024/01/22 04:56:47;;;;;;;1.92;1.50;;;10.00;81.00;;;;;;5018999;28;20133;-84
2024/01/22 04:59:13;;;;;;;1.85;1.30;;;10.00;81.00;;;;;;5000670;28;20489;-83
2024/01/22 05:01:40;;;;;;;1.25;1.20;;;10.00;80.90;;;;;;4983679;28;20022;-78
2024/01/22 05:04:06;;;;;;;1.40;1.30;;;10.10;81.00;;;;;;5016388;28;20053;-83
2024/01/22 05:06:32;;;;;;;1.50;1.40;;;10.10;80.90;;;;;;5008083;28;20034;-84
2024/01/22 05:08:58;;;;;;;1.52;1.35;;;10.10;80.90;;;;;;5009179;28;20030;-83
2024/01/22 05:11:24;;;;;;;1.98;1.45;;;10.10;80.80;;;;;;4993223;28;20077;-77
2024/01/22 05:13:51;;;;;;;1.50;1.40;;;10.20;80.90;;;;;;4993225;28;20037;-83
2024/01/22 05:16:17;;;;;;;1.73;1.38;;;10.20;80.90;;;;;;5000723;28;20065;-89
2024/01/22 05:18:47;;;;;;;1.70;1.23;;;10.20;80.90;;;;;;4985876;28;20383;-90
2024/01/22 05:21:13;;;;;;;1.30;1.20;;;10.20;80.90;;;;;;4986433;28;20073;-82
2024/01/22 05:23:40;;;;;;;1.13;1.10;;;10.20;80.80;;;;;;5012017;28;20038;-77
2024/01/22 05:26:06;;;;;;;1.48;1.38;;;10.20;80.90;;;;;;4991987;28;20041;-88
2024/01/22 05:28:32;;;;;;;1.17;1.17;;;10.30;80.80;;;;;;5009493;28;20402;-77
2024/01/22 05:30:59;;;;;;;1.38;1.27;;;10.30;80.80;;;;;;4986204;28;20025;-83
2024/01/22 05:33:25;;;;;;;1.40;1.30;;;10.30;80.80;;;;;;4990973;28;20260;-83
2024/01/22 05:35:52;;;;;;;1.27;1.17;;;10.30;80.80;;;;;;5007946;28;20022;-83
2024/01/22 05:38:18;;;;;;;1.30;1.20;;;10.30;80.70;;;;;;5005586;28;20033;-88
2024/01/22 05:40:44;;;;;;;1.25;1.20;;;10.40;80.80;;;;;;5008338;28;20026;-77
2024/01/22 05:43:10;;;;;;;1.42;1.30;;;10.40;80.80;;;;;;4983985;28;20545;-90
2024/01/22 05:45:37;;;;;;;1.30;1.20;;;10.40;80.70;;;;;;5007657;28;20127;-83
2024/01/22 05:48:03;;;;;;;1.25;1.17;;;10.40;80.70;;;;;;4980603;28;20358;-78
2024/01/22 05:50:29;;;;;;;1.48;1.30;;;10.40;80.70;;;;;;5018309;28;20030;-88
2024/01/22 05:52:55;;;;;;;1.30;1.20;;;10.40;80.70;;;;;;5002389;28;20037;-84
2024/01/22 05:55:21;;;;;;;1.48;1.25;;;10.50;80.70;;;;;;5007543;28;20030;-87
2024/01/22 05:57:47;;;;;;;1.33;1.23;;;10.50;80.60;;;;;;5008395;28;20517;-86
2024/01/22 06:00:14;;;;;;;1.30;1.20;;;10.50;80.60;;;;;;5010349;28;20033;-91
2024/01/22 06:02:43;;;;;;;1.42;1.30;;;10.50;80.60;;;;;;5009621;28;20379;-83
2024/01/22 06:05:09;;;;;;;1.27;1.23;;;10.50;80.60;;;;;;5007520;28;20108;-94
2024/01/22 06:07:36;;;;;;;1.23;1.13;;;10.50;80.50;;;;;;5009451;28;20133;-83
2024/01/22 06:10:02;;;;;;;1.10;1.10;;;10.60;80.60;;;;;;5005675;28;20034;-78
2024/01/22 06:12:28;;;;;;;1.63;1.27;;;10.60;80.60;;;;;;5011753;28;20445;-78
2024/01/22 06:14:54;;;;;;;1.25;1.17;;;10.60;81.20;;;;;;4988179;28;20338;-89
2024/01/22 06:17:20;;;;;;;1.30;1.20;;;10.60;80.60;;;;;;4998214;28;20048;-79
2024/01/22 06:19:46;;;;;;;1.23;1.23;;;10.70;80.60;;;;;;5001224;28;20041;-78
2024/01/22 06:22:12;;;;;;;1.15;1.13;;;10.70;80.60;;;;;;4987895;28;20105;-83
2024/01/22 06:24:39;;;;;;;1.10;1.10;;;10.70;80.60;;;;;;5001856;28;20078;-86
2024/01/22 06:27:05;;;;;;;1.10;1.10;;;10.70;80.60;;;;;;4991261;28;20031;-84
2024/01/22 06:29:31;;;;;;;1.30;1.20;;;10.70;80.50;;;;;;5019620;28;20022;-79
2024/01/22 06:31:57;;;;;;;1.27;1.20;;;10.70;80.50;;;;;;4981050;28;20513;-84
2024/01/22 06:34:23;;;;;;;1.20;1.10;;;10.80;80.60;;;;;;5010119;28;20026;-85
2024/01/22 06:36:48;;;;;;;1.02;1.02;;;10.80;80.50;;;;;;4993926;28;20033;-87
2024/01/22 06:39:14;;;;;;;1.52;1.30;;;10.80;80.50;;;;;;4992162;28;20033;-86
2024/01/22 06:41:41;;;;;;;1.38;1.20;;;10.80;80.50;;;;;;4988225;28;20026;-87
2024/01/22 06:44:07;;;;;;;1.25;1.20;;;10.80;80.40;;;;;;5003712;28;20029;-85
2024/01/22 06:46:33;;;;;;;1.33;1.20;;;10.80;80.40;;;;;;5007787;28;20025;-86
2024/01/22 06:49:01;;;;;;;1.42;1.20;;;10.80;80.40;;;;;;4998366;28;20034;-84
2024/01/22 06:51:29;;;;;;;1.23;1.13;;;10.80;80.40;;;;;;5003167;28;20065;-77
2024/01/22 06:53:56;;;;;;;1.05;1.02;;;10.90;81.00;;;;;;5008702;28;20034;-77
2024/01/22 06:56:24;;;;;;;1.83;1.23;;;10.90;80.40;;;;;;4993180;28;20029;-85
2024/01/22 06:58:50;;;;;;;1.10;1.10;;;10.90;80.40;;;;;;4980252;28;20026;-86
2024/01/22 07:01:16;;;;;;;1.10;1.10;;;10.90;80.40;;;;;;5020384;28;20026;-78
2024/01/22 07:03:42;;;;;;;1.30;1.00;;;11.00;80.40;;;;;;4994919;28;20406;-77
2024/01/22 07:06:07;;;;;;;1.10;1.00;;;11.00;80.40;;;;;;5009716;28;20030;-78
2024/01/22 07:08:33;;;;;;;1.00;1.00;;;11.00;80.40;;;;;;4985733;28;20019;-84
2024/01/22 07:11:02;;;;;;;1.00;1.00;;;11.00;80.30;;;;;;4992156;28;20033;-78
2024/01/22 07:13:28;;;;;;;1.02;1.00;;;11.00;80.30;;;;;;5005329;28;20027;-77
2024/01/22 07:15:54;;;;;;;1.10;1.10;;;11.10;80.30;;;;;;4997948;28;20030;-87
2024/01/22 07:18:20;;;;;;;1.00;1.00;;;11.10;80.30;;;;;;5008520;28;20030;-86
2024/01/22 07:20:46;;;;;;;1.25;1.10;;;11.10;80.30;;;;;;5006307;28;20033;-85
2024/01/22 07:23:12;;;;;;;1.40;1.30;;;11.10;80.30;;;;;;5007392;28;20076;-84
2024/01/22 07:25:38;;;;;;;1.38;1.20;;;11.10;80.30;;;;;;5002584;28;20109;-85
2024/01/22 07:28:04;;;;;;;1.10;1.10;;;11.10;80.30;;;;;;4991821;28;20185;-87
2024/01/22 07:30:30;;;;;;;1.92;1.17;;;11.20;80.30;;;;;;4998287;28;20054;-84
2024/01/22 07:32:57;;;;;;;1.23;1.10;;;11.20;80.30;;;;;;5023742;28;20453;-84
2024/01/22 07:35:24;;;;;;;1.02;1.00;;;11.20;80.20;;;;;;5011236;28;20390;-85
2024/01/22 07:37:50;;;;;;;1.20;1.10;;;11.20;80.20;;;;;;5001702;28;20022;-84
2024/01/22 07:40:16;;;;;;;1.15;1.00;;;11.20;80.20;;;;;;4995830;28;20072;-83
2024/01/22 07:42:42;;;;;;;1.33;1.08;;;11.30;80.20;;;;;;5007177;28;20413;-84
2024/01/22 07:45:09;;;;;;;1.45;1.10;;;11.30;80.20;;;;;;5004020;28;20109;-79
2024/01/22 07:47:36;;;;;;;1.77;1.17;;;11.30;80.20;;;;;;4998955;28;20506;-78
2024/01/22 07:50:10;;;;;;;1.20;1.10;;;11.30;80.20;;;;;;4981940;28;20049;-85
2024/01/22 07:52:37;;;;;;;1.30;1.10;;;11.30;80.20;;;;;;5008578;28;20026;-86
2024/01/22 07:55:05;;;;;;;1.00;1.00;;;11.40;80.30;;;;;;5005983;28;20053;-87
2024/01/22 07:57:31;;;;;;;1.42;1.10;;;11.40;80.90;;;;;;4994875;28;20551;-78
2024/01/22 07:59:57;;;;;;;1.13;1.02;;;11.40;80.20;;;;;;4996666;28;20125;-84
2024/01/22 08:02:23;;;;;;;1.60;1.13;;;11.40;80.20;;;;;;5012265;28;20030;-87
2024/01/22 08:04:50;;;;;;;1.02;1.00;;;11.40;80.20;;;;;;5009215;28;20564;-78
2024/01/22 08:07:19;;;;;;;1.05;1.05;;;11.40;80.20;;;;;;5002444;28;20040;-83
2024/01/22 08:09:46;;;;;;;1.13;1.02;;;11.40;80.10;;;;;;5005235;28;20057;-87
2024/01/22 08:12:11;;;;;;;2.55;1.20;;;11.50;80.20;;;;;;5020412;28;20033;-87
2024/01/22 08:14:37;;;;;;;1.70;1.10;;;11.50;80.20;;;;;;5002266;28;20048;-78
2024/01/22 08:17:03;;;;;;;1.00;1.00;;;11.50;80.20;;;;;;4990555;28;20062;-78
2024/01/22 08:19:41;;;;;;;0.90;0.90;;;11.50;80.20;;;;;;4993851;28;20021;-84
2024/01/22 08:22:07;;;;;;;1.00;1.00;;;11.60;80.20;;;;;;4989870;28;20023;-86
2024/01/22 08:24:33;;;;;;;1.30;1.20;;;11.50;80.10;;;;;;4988002;28;20105;-88
2024/01/22 08:27:02;;;;;;;1.23;1.10;;;11.60;80.20;;;;;;5008278;28;20521;-88
2024/01/22 08:29:40;;;;;;;1.13;1.10;;;11.60;80.20;;;;;;5010597;28;20042;-84
2024/01/22 08:32:06;;;;;;;1.45;1.08;;;11.60;80.20;;;;;;4987043;28;20034;-85
2024/01/22 08:34:35;;;;;;;1.65;1.25;;;11.60;80.10;;;;;;4989942;28;20445;-88
2024/01/22 08:37:00;;;;;;;1.25;1.05;;;11.60;80.20;;;;;;5007425;28;20022;-87
2024/01/22 08:39:26;;;;;;;1.30;1.10;;;11.60;80.20;;;;;;5016920;28;20030;-84
2024/01/22 08:41:52;;;;;;;2.25;1.20;;;11.70;80.20;;;;;;4990833;28;20034;-88
2024/01/22 08:44:18;;;;;;;1.65;1.08;;;11.70;80.20;;;;;;5009053;28;20038;-76
2024/01/22 08:46:43;;;;;;;1.38;1.10;;;11.70;80.20;;;;;;4993287;28;20045;-85
2024/01/22 08:49:09;;;;;;;1.38;1.10;;;11.70;80.10;;;;;;5002406;28;20030;-79
2024/01/22 08:51:35;;;;;;;1.25;1.10;;;11.70;80.10;;;;;;5008138;28;20030;-85
2024/01/22 08:54:07;;;;;;;1.95;1.20;;;11.70;80.20;;;;;;5007703;28;20036;-82
2024/01/22 08:56:33;;;;;;;2.70;1.25;;;11.70;80.20;;;;;;4987538;28;20033;-82
2024/01/22 08:58:59;;;;;;;1.27;1.08;;;11.80;80.20;;;;;;4993132;28;20110;-88
2024/01/22 09:01:24;;;;;;;2.13;1.48;;;11.80;80.80;;;;;;5000063;28;20030;-84
2024/01/22 09:03:50;;;;;;;2.63;1.27;;;11.80;80.20;;;;;;5002561;28;20038;-84
2024/01/22 09:06:16;;;;;;;2.40;1.25;;;11.80;80.20;;;;;;4989074;28;20036;-79
2024/01/22 09:08:42;;;;;;;2.25;1.30;;;11.80;80.20;;;;;;5002349;28;20520;-87
2024/01/22 09:11:08;;;;;;;1.00;1.00;;;11.80;80.20;;;;;;4977846;28;20029;-85
2024/01/22 09:13:36;;;;;;;1.23;1.13;;;11.90;80.20;;;;;;4994052;28;20025;-85
2024/01/22 09:16:02;;;;;;;2.10;1.33;;;11.90;80.20;;;;;;4991586;28;20026;-78
2024/01/22 09:18:27;;;;;;;1.90;1.20;;;11.90;80.20;;;;;;4997535;28;20486;-84
2024/01/22 09:20:54;;;;;;;2.63;1.60;;;11.90;80.20;;;;;;5009645;28;20055;-85
2024/01/22 09:23:21;;;;;;;1.42;1.20;;;11.90;80.20;;;;;;5007861;28;20026;-87
2024/01/22 09:25:47;;;;;;;1.30;1.20;;;11.90;80.80;;;;;;4989768;28;20023;-79
2024/01/22 09:28:14;;;;;;;1.25;1.10;;;11.90;80.10;;;;;;4995244;28;20044;-78
2024/01/22 09:30:41;;;;;;;1.27;1.13;;;12.00;80.20;;;;;;4987588;28;20038;-87
2024/01/22 09:33:09;;;;;;;1.00;1.00;;;12.00;80.20;;;;;;5024618;28;20030;-87
2024/01/22 09:35:36;;;;;;;1.33;1.15;;;12.00;80.20;;;;;;4993253;28;20034;-86
2024/01/22 09:38:01;;;;;;;1.52;1.25;;;12.00;80.20;;;;;;5008604;28;20067;-83
2024/01/22 09:40:32;;;;;;;2.13;1.40;;;12.00;80.10;;;;;;5000120;28;20100;-85
2024/01/22 09:43:03;;;;;;;2.17;1.50;;;12.00;80.20;;;;;;5026448;28;20045;-82
2024/01/22 09:45:30;;;;;;;1.88;1.15;;;12.10;80.20;;;;;;4990875;28;20040;-82
2024/01/22 09:47:56;;;;;;;1.58;1.20;;;12.00;80.10;;;;;;5007408;28;20030;-83
2024/01/22 09:50:22;;;;;;;1.67;1.27;;;12.10;80.20;;;;;;4993451;28;20081;-80
2024/01/22 09:52:52;;;;;;;1.92;1.15;;;12.10;80.20;;;;;;4991161;28;20030;-86
2024/01/22 09:55:19;;;;;;;2.95;1.60;;;12.10;80.20;;;;;;5006724;28;20041;-86
2024/01/22 09:57:46;;;;;;;1.50;1.20;;;12.10;80.10;;;;;;5006013;28;20030;-84
2024/01/22 10:00:16;;;;;;;1.83;1.15;;;12.10;80.10;;;;;;5009068;28;20519;-76
2024/01/22 10:02:43;;;;;;;1.80;1.20;;;12.10;80.10;;;;;;5001681;28;20462;-87
2024/01/22 10:05:09;;;;;;;3.13;1.40;;;12.10;80.10;;;;;;4992893;28;20041;-88
2024/01/22 10:07:34;;;;;;;1.58;1.25;;;12.10;80.10;;;;;;4992456;28;20053;-87
2024/01/22 10:10:00;;;;;;;3.08;1.85;;;12.10;80.10;;;;;;4999297;28;20097;-88
2024/01/22 10:12:26;;;;;;;3.10;1.33;;;12.10;80.10;;;;;;5011223;28;20123;-87
2024/01/22 10:14:51;;;;;;;2.33;1.40;;;12.20;80.20;;;;;;5007218;28;20050;-87
2024/01/22 10:17:24;;;;;;;2.22;1.20;;;12.20;80.20;;;;;;5008916;28;20070;-81
2024/01/22 10:19:51;;;;;;;2.92;1.20;;;12.20;80.20;;;;;;4995867;28;20026;-86
2024/01/22 10:22:22;;;;;;;1.65;1.10;;;12.20;80.20;;;;;;5009529;28;20026;-75
2024/01/22 10:25:01;;;;;;;1.98;1.20;;;12.20;80.20;;;;;;4999384;28;20387;-74
2024/01/22 10:27:29;;;;;;;3.17;1.40;;;12.20;80.20;;;;;;5005005;28;20050;-80
2024/01/22 10:30:11;;;;;;;2.95;1.30;;;12.20;80.20;;;;;;5020031;28;20077;-75
2024/01/22 10:32:36;;;;;;;1.75;1.20;;;12.10;80.20;;;;;;4990219;28;20049;-79
2024/01/22 10:35:03;;;;;;;2.05;1.40;;;12.20;80.20;;;;;;4993796;28;20026;-87
2024/01/22 10:37:30;;;;;;;2.28;1.17;;;12.20;80.20;;;;;;5020081;28;20118;-78
2024/01/22 10:40:03;;;;;;;2.40;1.10;;;12.20;80.20;;;;;;4993436;28;20515;-81
2024/01/22 10:42:29;;;;;;;2.38;1.35;;;12.20;80.20;;;;;;4989237;28;20133;-81
2024/01/22 10:44:57;;;;;;;3.65;1.33;;;12.20;80.20;;;;;;5008529;28;20537;-75
2024/01/22 10:47:23;;;;;;;2.42;1.25;;;12.20;80.20;;;;;;5009350;28;20539;-75
2024/01/22 10:49:52;;;;;;;2.20;1.25;;;12.20;80.20;;;;;;4992779;28;20421;-84
2024/01/22 10:52:19;;;;;;;3.13;1.33;;;12.20;80.20;;;;;;5007469;28;20058;-81
2024/01/22 10:54:45;;;;;;;2.20;1.30;;;12.20;80.20;;;;;;4977267;28;20030;-75
2024/01/22 10:57:33;;;;;;;2.42;1.20;;;12.20;80.20;;;;;;4987005;28;20042;-81
2024/01/22 11:00:06;;;;;;;1.60;1.23;;;12.20;80.20;;;;;;4991882;28;20046;-75
2024/01/22 11:02:34;;;;;;;1.42;1.08;;;12.20;80.20;;;;;;5007324;28;20033;-83
2024/01/22 11:05:12;;;;;;;1.77;1.23;;;12.20;80.20;;;;;;5007885;28;20030;-76
2024/01/22 11:07:39;;;;;;;2.15;1.35;;;12.20;80.20;;;;;;5011936;28;20089;-76
2024/01/22 11:10:09;;;;;;;1.92;1.20;;;12.20;80.20;;;;;;5008515;28;20101;-75
2024/01/22 11:12:43;;;;;;;1.70;1.10;;;12.20;80.20;;;;;;5010659;28;20030;-84
2024/01/22 11:15:10;;;;;;;3.30;1.35;;;12.20;80.20;;;;;;5007221;28;20037;-75
2024/01/22 11:17:35;;;;;;;2.42;1.25;;;12.20;80.20;;;;;;4993296;28;20133;-81
2024/01/22 11:20:18;;;;;;;2.88;1.30;;;12.20;80.20;;;;;;4990662;28;20214;-83
2024/01/22 11:23:15;;;;;;;2.95;1.38;;;12.20;80.20;;;;;;5011598;28;20040;-84
2024/01/22 11:25:41;;;;;;;1.73;1.40;;;12.20;80.30;;;;;;5016675;28;20536;-75
2024/01/22 11:28:15;;;;;;;2.95;1.55;;;12.20;80.20;;;;;;4987892;28;20077;-81
2024/01/22 11:30:42;;;;;;;4.03;1.85;;;12.20;80.20;;;;;;4995689;28;20023;-75
2024/01/22 11:33:37;;;;;;;3.35;1.40;;;12.20;80.20;;;;;;4995977;28;20022;-83
2024/01/22 11:36:03;;;;;;;4.07;1.63;;;12.20;80.30;;;;;;4992529;28;20034;-82
2024/01/22 11:38:49;;;;;;;3.13;1.33;;;12.20;80.20;;;;;;5010214;28;20045;-82
2024/01/22 11:41:28;;;;;;;3.15;1.50;;;12.20;80.30;;;;;;4995426;28;20026;-86
2024/01/22 11:43:54;;;;;;;4.32;1.77;;;12.20;80.30;;;;;;4979360;28;20035;-75
2024/01/22 11:46:20;;;;;;;3.60;1.50;;;12.20;80.20;;;;;;5016215;28;20038;-76
2024/01/22 11:48:45;;;;;;;3.28;1.42;;;12.20;80.20;;;;;;4988345;28;20026;-84
2024/01/22 11:51:25;;;;;;;5.78;1.90;;;12.20;80.20;;;;;;4994285;28;20030;-83
2024/01/22 11:53:56;;;;;;;2.03;1.10;;;12.20;80.20;;;;;;5006461;28;20170;-83
2024/01/22 11:56:22;;;;;;;2.72;1.35;;;12.20;80.20;;;;;;5010342;28;20085;-82
2024/01/22 11:59:00;;;;;;;4.70;1.60;;;12.20;80.20;;;;;;5013609;28;20072;-88
2024/01/22 12:01:26;;;;;;;2.90;1.40;;;12.20;80.20;;;;;;5006290;28;20026;-75
2024/01/22 12:03:52;;;;;;;3.97;1.83;;;12.20;80.20;;;;;;5004955;28;20486;-81
2024/01/22 12:06:18;;;;;;;4.45;2.65;;;12.20;80.20;;;;;;4991068;28;20022;-82
2024/01/22 12:08:55;;;;;;;3.00;1.40;;;12.20;80.20;;;;;;5006157;28;20018;-74
2024/01/22 12:11:21;;;;;;;3.78;1.65;;;12.20;80.20;;;;;;5023888;28;20030;-75
2024/01/22 12:13:46;;;;;;;2.03;1.38;;;12.20;80.20;;;;;;5006192;28;20038;-83
2024/01/22 12:16:17;;;;;;;3.72;1.52;;;12.20;80.80;;;;;;5005454;28;20026;-81
2024/01/22 12:18:47;;;;;;;4.20;1.52;;;12.30;80.30;;;;;;4994284;28;20061;-81
2024/01/22 12:21:14;;;;;;;4.97;1.63;;;12.30;80.30;;;;;;4994929;28;20033;-75
2024/01/22 12:23:40;;;;;;;6.32;2.35;;;12.20;80.20;;;;;;4989275;28;20026;-82
2024/01/22 12:26:19;;;;;;;5.07;1.73;;;12.20;80.20;;;;;;4995192;28;20084;-85
2024/01/22 12:28:53;;;;;;;4.95;2.00;;;12.30;80.30;;;;;;5010713;28;20042;-83
2024/01/22 12:31:22;;;;;;;5.97;2.60;;;12.30;80.30;;;;;;5012553;28;20021;-83
2024/01/22 12:33:48;;;;;;;3.10;1.70;;;12.30;80.30;;;;;;5011992;28;20026;-75
2024/01/22 12:36:15;;;;;;;4.03;1.80;;;12.30;80.30;;;;;;4992715;28;20036;-75
2024/01/22 12:38:49;;;;;;;3.25;1.58;;;12.30;80.30;;;;;;4989624;28;20034;-87
2024/01/22 12:41:15;;;;;;;6.25;2.75;;;12.30;80.30;;;;;;5008296;28;20034;-75
2024/01/22 12:43:41;;;;;;;4.10;1.80;;;12.30;80.20;;;;;;4992254;28;20230;-75
2024/01/22 12:46:14;;;;;;;4.47;1.98;;;12.30;80.30;;;;;;4990992;28;20069;-75
2024/01/22 12:48:41;;;;;;;4.63;1.90;;;12.30;80.30;;;;;;4987047;28;20026;-81
2024/01/22 12:51:08;;;;;;;3.85;1.80;;;12.30;80.20;;;;;;5008514;28;20038;-75